createdAt,value
2022-12-13T00:01:53.067Z,101339.88
2022-12-13T00:04:22.585Z,101343.00
2022-12-13T00:06:51.385Z,101329.34
2022-12-13T00:09:20.469Z,101333.44
2022-12-13T00:11:49.200Z,101322.72
2022-12-13T00:14:17.108Z,101336.31
2022-12-13T00:16:49.703Z,101329.94
2022-12-13T00:19:18.956Z,101323.66
2022-12-13T00:21:46.498Z,101321.91
2022-12-13T00:24:14.651Z,101308.44
2022-12-13T00:26:42.198Z,101315.28
2022-12-13T00:29:10.296Z,101311.75
2022-12-13T00:32:00.020Z,101309.13
2022-12-13T00:34:26.147Z,101313.72
2022-12-13T00:36:59.158Z,101298.09
2022-12-13T00:39:27.326Z,101304.72
2022-12-13T00:41:54.848Z,101318.78
2022-12-13T00:44:22.458Z,101313.50
2022-12-13T00:46:51.748Z,101305.81
2022-12-13T00:49:19.564Z,101303.94
2022-12-13T00:51:48.228Z,101292.63
2022-12-13T00:54:16.018Z,101301.03
2022-12-13T00:56:43.631Z,101295.75
2022-12-13T00:59:15.574Z,101300.72
2022-12-13T01:01:43.163Z,101294.84
2022-12-13T01:04:11.567Z,101296.75
2022-12-13T01:06:49.667Z,101298.50
2022-12-13T01:09:21.273Z,101298.59
2022-12-13T01:11:49.813Z,101292.81
2022-12-13T01:14:18.734Z,101300.81
2022-12-13T01:16:46.336Z,101291.44
2022-12-13T01:19:13.951Z,101292.03
2022-12-13T01:21:41.464Z,101290.19
2022-12-13T01:24:09.182Z,101297.69
2022-12-13T01:26:36.723Z,101300.03
2022-12-13T01:29:05.640Z,101283.44
2022-12-13T01:31:34.053Z,101297.13
2022-12-13T01:34:10.201Z,101291.66
2022-12-13T01:36:38.554Z,101292.81
2022-12-13T01:39:14.370Z,101302.75
2022-12-13T01:41:44.656Z,101294.19
2022-12-13T01:44:49.693Z,101292.63
2022-12-13T01:47:20.904Z,101287.16
2022-12-13T01:49:48.784Z,101297.31
2022-12-13T01:52:17.418Z,101300.63
2022-12-13T01:54:49.022Z,101295.34
2022-12-13T01:57:19.529Z,101288.22
2022-12-13T01:59:48.231Z,101289.75
2022-12-13T02:02:16.228Z,101290.06
2022-12-13T02:04:54.492Z,101298.06
2022-12-13T02:07:27.554Z,101300.69
2022-12-13T02:09:58.585Z,101298.84
2022-12-13T02:12:30.369Z,101302.94
2022-12-13T02:15:01.816Z,101291.25
2022-12-13T02:17:53.937Z,101292.22
2022-12-13T02:20:53.747Z,101293.78
2022-12-13T02:23:33.433Z,101293.88
2022-12-13T02:26:45.315Z,101292.03
2022-12-13T02:29:34.101Z,101293.56
2022-12-13T02:32:32.317Z,101290.66
2022-12-13T02:35:12.349Z,101293.75
2022-12-13T02:37:58.652Z,101278.34
2022-12-13T02:40:47.811Z,101281.84
2022-12-13T02:43:36.485Z,101278.53
2022-12-13T02:46:16.296Z,101268.19
2022-12-13T02:48:44.847Z,101274.31
2022-12-13T02:51:13.689Z,101270.50
2022-12-13T02:53:42.453Z,101280.66
2022-12-13T02:56:09.981Z,101271.94
2022-12-13T02:58:44.357Z,101275.34
2022-12-13T03:01:43.700Z,101270.28
2022-12-13T03:04:22.185Z,101258.88
2022-12-13T03:06:54.396Z,101273.41
2022-12-13T03:09:40.392Z,101268.31
2022-12-13T03:12:49.448Z,101262.84
2022-12-13T03:15:23.359Z,101263.03
2022-12-13T03:17:55.161Z,101252.50
2022-12-13T03:20:26.203Z,101264.41
2022-12-13T03:22:55.274Z,101262.44
2022-12-13T03:25:31.306Z,101260.06
2022-12-13T03:28:01.243Z,101265.91
2022-12-13T03:30:30.999Z,101270.41
2022-12-13T03:32:58.476Z,101260.28
2022-12-13T03:35:34.819Z,101271.97
2022-12-13T03:38:13.409Z,101234.50
2022-12-13T03:40:52.168Z,101256.56
2022-12-13T03:43:21.633Z,101259.84
2022-12-13T03:45:50.141Z,101270.88
2022-12-13T03:48:22.801Z,101257.31
2022-12-13T03:50:51.497Z,101263.38
2022-12-13T03:53:22.617Z,101265.81
2022-12-13T03:55:51.003Z,101260.16
2022-12-13T03:58:18.936Z,101250.34
2022-12-13T04:00:46.875Z,101268.31
2022-12-13T04:03:14.801Z,101263.84
2022-12-13T04:05:42.484Z,101257.84
2022-12-13T04:08:21.809Z,101260.00
2022-12-13T04:10:50.033Z,101254.44
2022-12-13T04:13:35.138Z,101248.88
2022-12-13T04:16:03.697Z,101249.25
2022-12-13T04:18:31.508Z,101251.81
2022-12-13T04:20:59.089Z,101242.44
2022-12-13T04:23:26.618Z,101262.47
2022-12-13T04:25:54.279Z,101256.81
2022-12-13T04:28:22.930Z,101250.03
2022-12-13T04:30:53.356Z,101251.81
2022-12-13T04:33:22.982Z,101255.31
2022-12-13T04:35:51.453Z,101254.38
2022-12-13T04:38:19.741Z,101257.06
2022-12-13T04:40:47.559Z,101251.03
2022-12-13T04:43:15.063Z,101245.16
2022-12-13T04:45:42.754Z,101243.63
2022-12-13T04:48:10.502Z,101236.59
2022-12-13T04:50:38.109Z,101236.75
2022-12-13T04:53:05.578Z,101228.41
2022-12-13T04:55:33.053Z,101236.00
2022-12-13T04:58:00.518Z,101228.28
2022-12-13T05:00:28.074Z,101234.22
2022-12-13T05:02:55.680Z,101232.38
2022-12-13T05:05:23.397Z,101227.78
2022-12-13T05:07:50.930Z,101237.44
2022-12-13T05:10:36.132Z,101233.28
2022-12-13T05:13:05.378Z,101231.53
2022-12-13T05:15:33.572Z,101225.66
2022-12-13T05:18:09.822Z,101222.22
2022-12-13T05:20:39.699Z,101225.56
2022-12-13T05:23:07.384Z,101231.88
2022-12-13T05:25:36.942Z,101223.31
2022-12-13T05:28:09.078Z,101212.97
2022-12-13T05:30:53.585Z,101216.66
2022-12-13T05:33:21.122Z,101222.72
2022-12-13T05:35:48.846Z,101216.47
2022-12-13T05:38:16.443Z,101222.91
2022-12-13T05:40:44.052Z,101222.72
2022-12-13T05:43:21.861Z,101223.00
2022-12-13T05:45:50.146Z,101223.81
2022-12-13T05:48:24.521Z,101211.00
2022-12-13T05:51:10.025Z,101224.66
2022-12-13T05:53:39.235Z,101216.28
2022-12-13T05:56:06.940Z,101216.09
2022-12-13T05:58:36.136Z,101223.81
2022-12-13T06:01:12.104Z,101217.84
2022-12-13T06:03:40.607Z,101217.47
2022-12-13T06:06:10.261Z,101216.09
2022-12-13T06:08:38.534Z,101220.38
2022-12-13T06:11:10.648Z,101226.25
2022-12-13T06:13:42.613Z,101216.94
2022-12-13T06:16:21.895Z,101215.41
2022-12-13T06:19:01.015Z,101215.31
2022-12-13T06:21:40.836Z,101209.25
2022-12-13T06:24:11.304Z,101210.13
2022-12-13T06:26:38.797Z,101203.19
2022-12-13T06:29:06.309Z,101204.84
2022-12-13T06:31:33.855Z,101208.09
2022-12-13T06:34:15.325Z,101213.75
2022-12-13T06:36:43.928Z,101209.25
2022-12-13T06:39:11.555Z,101216.94
2022-12-13T06:41:39.156Z,101206.03
2022-12-13T06:44:06.707Z,101212.97
2022-12-13T06:46:34.820Z,101217.06
2022-12-13T06:49:02.412Z,101216.28
2022-12-13T06:51:32.484Z,101217.16
2022-12-13T06:54:01.437Z,101220.56
2022-12-13T06:56:29.947Z,101218.81
2022-12-13T06:59:01.656Z,101207.47
2022-12-13T07:01:37.618Z,101218.03
2022-12-13T07:04:28.989Z,101221.38
2022-12-13T07:06:56.565Z,101217.84
2022-12-13T07:09:31.460Z,101213.94
2022-12-13T07:11:59.244Z,101221.06
2022-12-13T07:14:26.902Z,101223.31
2022-12-13T07:16:59.616Z,101228.66
2022-12-13T07:19:34.922Z,101229.75
2022-12-13T07:22:05.871Z,101234.34
2022-12-13T07:24:33.801Z,101235.22
2022-12-13T07:27:01.316Z,101226.81
2022-12-13T07:29:28.878Z,101232.50
2022-12-13T07:32:01.496Z,101230.16
2022-12-13T07:34:30.118Z,101229.84
2022-12-13T07:36:57.769Z,101236.88
2022-12-13T07:39:27.034Z,101238.72
2022-12-13T07:41:56.580Z,101239.53
2022-12-13T07:44:25.293Z,101244.81
2022-12-13T07:46:53.656Z,101248.97
2022-12-13T07:49:21.312Z,101253.16
2022-12-13T07:51:49.097Z,101251.63
2022-12-13T07:54:16.838Z,101247.41
2022-12-13T07:56:44.506Z,101248.28
2022-12-13T07:59:13.617Z,101257.38
2022-12-13T08:01:41.223Z,101260.88
2022-12-13T08:04:09.256Z,101258.44
2022-12-13T08:06:38.362Z,101250.03
2022-12-13T08:09:06.822Z,101252.78
2022-12-13T08:11:34.560Z,101250.66
2022-12-13T08:14:02.072Z,101254.16
2022-12-13T08:16:30.333Z,101264.19
2022-12-13T08:19:02.697Z,101273.09
2022-12-13T08:21:57.486Z,101258.75
2022-12-13T08:24:30.729Z,101254.75
2022-12-13T08:27:03.489Z,101260.00
2022-12-13T08:29:36.251Z,101253.38
2022-12-13T08:32:10.060Z,101261.94
2022-12-13T08:34:37.719Z,101261.94
2022-12-13T08:37:05.934Z,101253.56
2022-12-13T08:39:36.287Z,101260.28
2022-12-13T08:42:14.678Z,101253.16
2022-12-13T08:44:44.061Z,101265.47
2022-12-13T08:47:11.589Z,101267.53
2022-12-13T08:49:39.247Z,101278.34
2022-12-13T08:52:06.769Z,101266.81
2022-12-13T08:54:35.093Z,101263.84
2022-12-13T08:57:02.661Z,101262.13
2022-12-13T08:59:30.281Z,101272.84
2022-12-13T09:02:03.168Z,101278.47
2022-12-13T09:04:32.572Z,101270.94
2022-12-13T09:07:01.746Z,101266.94
2022-12-13T09:09:30.143Z,101271.53
2022-12-13T09:11:59.324Z,101275.13
2022-12-13T09:14:33.723Z,101264.16
2022-12-13T09:17:03.614Z,101260.69
2022-12-13T09:19:36.764Z,101228.22
2022-12-13T09:22:06.481Z,101268.75
2022-12-13T09:24:42.069Z,101270.44
2022-12-13T09:27:27.257Z,101272.47
2022-12-13T09:29:55.773Z,101265.66
2022-12-13T09:32:23.955Z,101268.19
2022-12-13T09:34:51.695Z,101278.09
2022-12-13T09:37:22.820Z,101270.88
2022-12-13T09:39:54.937Z,101263.44
2022-12-13T09:42:30.457Z,101255.59
2022-12-13T09:45:22.319Z,101259.25
2022-12-13T09:47:52.527Z,101258.66
2022-12-13T09:50:38.542Z,101258.31
2022-12-13T09:53:12.016Z,101242.53
2022-12-13T09:55:55.697Z,101234.72
2022-12-13T09:58:38.437Z,101236.38
2022-12-13T10:01:06.546Z,101239.63
2022-12-13T10:03:34.672Z,101237.25
2022-12-13T10:06:14.756Z,101242.53
2022-12-13T10:08:59.430Z,101243.03
2022-12-13T10:11:32.501Z,101238.47
2022-12-13T10:14:19.246Z,101232.25
2022-12-13T10:16:57.855Z,101216.16
2022-12-13T10:19:37.500Z,101209.03
2022-12-13T10:22:09.430Z,101218.28
2022-12-13T10:24:56.633Z,101206.75
2022-12-13T10:27:44.372Z,101208.28
2022-12-13T10:30:27.695Z,101211.88
2022-12-13T10:33:00.994Z,101210.72
2022-12-13T10:35:31.241Z,101215.28
2022-12-13T10:38:01.981Z,101214.75
2022-12-13T10:40:36.859Z,101212.63
2022-12-13T10:43:15.334Z,101201.00
2022-12-13T10:45:58.965Z,101198.91
2022-12-13T10:48:40.808Z,101183.38
2022-12-13T10:51:13.818Z,101178.47
2022-12-13T10:53:48.235Z,101163.66
2022-12-13T10:56:22.808Z,101166.19
2022-12-13T10:59:15.143Z,101168.91
2022-12-13T11:01:44.800Z,101169.47
2022-12-13T11:04:29.668Z,101189.81
2022-12-13T11:07:00.088Z,101179.63
2022-12-13T11:09:29.856Z,101167.00
2022-12-13T11:12:19.954Z,101171.63
2022-12-13T11:15:05.362Z,101164.31
2022-12-13T11:17:35.913Z,101178.19
2022-12-13T11:20:08.018Z,101168.69
2022-12-13T11:22:38.513Z,101160.50
2022-12-13T11:25:20.071Z,101173.06
2022-12-13T11:28:02.671Z,101175.00
2022-12-13T11:30:30.395Z,101170.34
2022-12-13T11:33:16.270Z,101172.59
2022-12-13T11:35:47.547Z,101156.69
2022-12-13T11:38:50.054Z,101145.97
2022-12-13T11:41:31.420Z,101154.59
2022-12-13T11:44:05.314Z,101141.34
2022-12-13T11:46:47.425Z,101130.81
2022-12-13T11:49:18.986Z,101114.72
2022-12-13T11:51:53.151Z,101124.41
2022-12-13T11:54:33.141Z,101117.38
2022-12-13T11:57:08.005Z,101115.81
2022-12-13T11:59:44.077Z,101124.88
2022-12-13T12:02:23.394Z,101114.81
2022-12-13T12:05:00.382Z,101109.84
2022-12-13T12:07:38.315Z,101118.31
2022-12-13T12:10:14.811Z,101119.22
2022-12-13T12:12:48.314Z,101120.06
2022-12-13T12:15:26.698Z,101121.84
2022-12-13T12:17:56.336Z,101117.31
2022-12-13T12:20:48.052Z,101121.69
2022-12-13T12:23:31.835Z,101124.56
2022-12-13T12:26:12.757Z,101117.31
2022-12-13T12:28:50.596Z,101112.63
2022-12-13T12:31:27.255Z,101118.81
2022-12-13T12:34:13.331Z,101112.50
2022-12-13T12:37:02.686Z,101114.19
2022-12-13T12:40:17.332Z,101100.38
2022-12-13T12:43:27.045Z,101119.34
2022-12-13T12:46:22.695Z,101108.56
2022-12-13T12:49:01.113Z,101103.44
2022-12-13T12:51:57.254Z,101106.00
2022-12-13T12:54:48.930Z,101107.97
2022-12-13T12:57:27.273Z,101097.56
2022-12-13T13:00:02.158Z,101091.50
2022-12-13T13:02:48.779Z,101087.56
2022-12-13T13:05:37.091Z,101080.13
2022-12-13T13:08:20.106Z,101096.44
2022-12-13T13:10:49.822Z,101085.22
2022-12-13T13:13:50.515Z,101089.03
2022-12-13T13:16:36.572Z,101090.47
2022-12-13T13:19:32.596Z,101086.47
2022-12-13T13:22:02.611Z,101087.72
2022-12-13T13:24:33.141Z,101079.25
2022-12-13T13:27:20.552Z,101076.94
2022-12-13T13:29:48.292Z,101082.97
2022-12-13T13:32:29.720Z,101070.44
2022-12-13T13:35:29.692Z,101075.09
2022-12-13T13:37:58.378Z,101070.06
2022-12-13T13:40:37.783Z,101069.09
2022-12-13T13:43:05.319Z,101060.97
2022-12-13T13:45:54.912Z,101058.69
2022-12-13T13:48:54.218Z,101049.19
2022-12-13T13:52:16.813Z,101054.31
2022-12-13T13:54:49.638Z,101055.41
2022-12-13T13:58:10.841Z,101049.66
2022-12-13T14:01:16.724Z,101057.53
2022-12-13T14:04:05.916Z,101048.91
2022-12-13T14:07:01.684Z,101046.81
2022-12-13T14:09:48.136Z,101048.75
2022-12-13T14:12:30.763Z,101050.78
2022-12-13T14:15:26.817Z,101040.59
2022-12-13T14:18:05.966Z,101035.53
2022-12-13T14:21:07.571Z,101027.59
2022-12-13T14:23:56.890Z,101038.41
2022-12-13T14:26:39.306Z,101033.97
2022-12-13T14:29:17.268Z,101043.25
2022-12-13T14:31:49.560Z,101027.72
2022-12-13T14:34:22.836Z,101028.63
2022-12-13T14:37:04.670Z,101027.50
2022-12-13T14:39:34.606Z,101023.66
2022-12-13T14:42:04.364Z,101020.31
2022-12-13T14:44:35.195Z,101019.19
2022-12-13T14:47:08.504Z,101022.06
2022-12-13T14:49:41.678Z,101020.44
2022-12-13T14:52:27.679Z,101025.25
2022-12-13T14:55:00.694Z,101019.00
2022-12-13T14:57:34.842Z,101014.28
2022-12-13T15:00:23.021Z,101013.72
2022-12-13T15:02:52.628Z,101009.84
2022-12-13T15:05:35.319Z,101007.31
2022-12-13T15:08:10.512Z,101000.66
2022-12-13T15:10:48.334Z,101002.03
2022-12-13T15:13:44.133Z,100995.78
2022-12-13T15:16:25.644Z,100995.03
2022-12-13T15:19:10.873Z,101000.94
2022-12-13T15:21:38.849Z,100997.50
2022-12-13T15:24:07.369Z,100999.84
2022-12-13T15:26:35.405Z,100992.84
2022-12-13T15:29:10.201Z,100992.34
2022-12-13T15:31:40.313Z,100983.91
2022-12-13T15:34:31.038Z,100982.16
2022-12-13T15:37:29.170Z,100988.38
2022-12-13T15:40:01.704Z,100985.84
2022-12-13T15:42:36.112Z,100988.53
2022-12-13T15:45:18.330Z,100976.44
2022-12-13T15:47:48.104Z,100981.00
2022-12-13T15:50:32.990Z,100973.75
2022-12-13T15:53:05.078Z,100966.81
2022-12-13T15:55:37.317Z,100960.94
2022-12-13T15:58:05.058Z,100973.09
2022-12-13T16:00:36.549Z,100965.47
2022-12-13T16:03:09.955Z,100969.47
2022-12-13T16:05:43.073Z,100968.56
2022-12-13T16:08:35.603Z,100958.97
2022-12-13T16:11:03.622Z,100964.84
2022-12-13T16:13:36.795Z,100963.97
2022-12-13T16:16:10.545Z,100966.53
2022-12-13T16:18:56.818Z,100970.56
2022-12-13T16:21:25.480Z,100955.47
2022-12-13T16:23:53.377Z,100957.03
2022-12-13T16:26:31.133Z,100954.56
2022-12-13T16:28:59.474Z,100953.56
2022-12-13T16:31:35.463Z,100941.31
2022-12-13T16:34:05.074Z,100948.00
2022-12-13T16:36:33.050Z,100948.47
2022-12-13T16:39:00.508Z,100936.38
2022-12-13T16:41:28.271Z,100939.47
2022-12-13T16:44:01.611Z,100933.56
2022-12-13T16:47:13.270Z,100928.28
2022-12-13T16:49:35.163Z,100937.66
2022-12-13T16:52:04.993Z,100930.19
2022-12-13T16:54:32.473Z,100933.19
2022-12-13T16:57:00.021Z,100930.66
2022-12-13T16:59:28.213Z,100918.56
2022-12-13T17:01:55.844Z,100916.97
2022-12-13T17:04:27.157Z,100926.66
2022-12-13T17:06:55.567Z,100916.25
2022-12-13T17:09:24.760Z,100915.47
2022-12-13T17:11:52.597Z,100922.38
2022-12-13T17:14:20.272Z,100926.91
2022-12-13T17:16:47.867Z,100927.63
2022-12-13T17:19:17.459Z,100932.84
2022-12-13T17:21:45.103Z,100928.28
2022-12-13T17:24:12.968Z,100929.22
2022-12-13T17:26:41.616Z,100933.38
2022-12-13T17:29:22.559Z,100935.34
2022-12-13T17:31:50.117Z,100933.38
2022-12-13T17:34:17.679Z,100926.91
2022-12-13T17:36:45.308Z,100929.94
2022-12-13T17:39:13.772Z,100924.28
2022-12-13T17:41:41.862Z,100922.75
2022-12-13T17:44:09.666Z,100931.44
2022-12-13T17:46:37.300Z,100929.94
2022-12-13T17:49:04.993Z,100945.38
2022-12-13T17:51:32.605Z,100944.16
2022-12-13T17:54:00.127Z,100948.47
2022-12-13T17:56:27.715Z,100941.63
2022-12-13T17:58:55.232Z,100947.50
2022-12-13T18:01:25.301Z,100943.69
2022-12-13T18:03:55.532Z,100934.47
2022-12-13T18:06:24.600Z,100930.19
2022-12-13T18:08:52.237Z,100934.13
2022-12-13T18:11:36.160Z,100926.50
2022-12-13T18:14:05.585Z,100923.81
2022-12-13T18:16:37.468Z,100918.72
2022-12-13T18:19:08.297Z,100918.88
2022-12-13T18:21:36.889Z,100911.88
2022-12-13T18:24:05.287Z,100913.47
2022-12-13T18:26:32.853Z,100911.72
2022-12-13T18:29:00.468Z,100892.16
2022-12-13T18:31:28.246Z,100880.53
2022-12-13T18:33:56.035Z,100889.31
2022-12-13T18:36:25.357Z,100899.69
2022-12-13T18:38:53.076Z,100901.38
2022-12-13T18:41:28.196Z,100893.44
2022-12-13T18:44:07.907Z,100901.06
2022-12-13T18:46:42.235Z,100895.81
2022-12-13T18:49:13.000Z,100897.72
2022-12-13T18:51:40.722Z,100898.59
2022-12-13T18:54:08.340Z,100894.22
2022-12-13T18:56:35.803Z,100884.38
2022-12-13T18:59:03.269Z,100885.97
2022-12-13T19:01:31.217Z,100877.34
2022-12-13T19:03:59.160Z,100877.94
2022-12-13T19:06:28.459Z,100878.00
2022-12-13T19:08:57.838Z,100885.56
2022-12-13T19:11:27.200Z,100883.34
2022-12-13T19:13:55.585Z,100884.78
2022-12-13T19:16:24.380Z,100873.53
2022-12-13T19:18:52.164Z,100870.06
2022-12-13T19:21:21.875Z,100870.94
2022-12-13T19:23:56.393Z,100870.22
2022-12-13T19:26:25.861Z,100875.94
2022-12-13T19:28:53.388Z,100866.56
2022-12-13T19:31:25.499Z,100868.00
2022-12-13T19:33:57.348Z,100855.09
2022-12-13T19:36:25.128Z,100850.66
2022-12-13T19:38:52.843Z,100849.38
2022-12-13T19:41:20.504Z,100842.72
2022-12-13T19:43:53.095Z,100843.19
2022-12-13T19:46:21.353Z,100836.19
2022-12-13T19:48:49.143Z,100842.25
2022-12-13T19:51:17.814Z,100825.38
2022-12-13T19:53:45.437Z,100830.63
2022-12-13T19:56:17.517Z,100825.56
2022-12-13T19:58:46.144Z,100813.66
2022-12-13T20:01:14.075Z,100812.03
2022-12-13T20:03:43.572Z,100806.94
2022-12-13T20:06:13.345Z,100800.28
2022-12-13T20:08:41.699Z,100800.28
2022-12-13T20:11:13.020Z,100809.00
2022-12-13T20:13:40.926Z,100794.63
2022-12-13T20:16:09.258Z,100792.16
2022-12-13T20:18:36.777Z,100789.59
2022-12-13T20:21:12.671Z,100782.63
2022-12-13T20:23:48.659Z,100793.84
2022-12-13T20:26:23.608Z,100776.88
2022-12-13T20:28:52.095Z,100783.88
2022-12-13T20:31:22.745Z,100781.13
2022-12-13T20:33:55.772Z,100776.19
2022-12-13T20:36:27.495Z,100777.38
2022-12-13T20:38:57.527Z,100775.59
2022-12-13T20:41:29.600Z,100763.84
2022-12-13T20:43:59.505Z,100756.44
2022-12-13T20:46:28.635Z,100761.53
2022-12-13T20:48:57.785Z,100750.47
2022-12-13T20:51:28.448Z,100749.19
2022-12-13T20:53:57.161Z,100746.72
2022-12-13T20:56:26.924Z,100739.00
2022-12-13T20:58:54.612Z,100741.22
2022-12-13T21:01:24.796Z,100740.41
2022-12-13T21:03:56.366Z,100729.56
2022-12-13T21:06:24.269Z,100727.94
2022-12-13T21:08:55.244Z,100726.06
2022-12-13T21:11:26.994Z,100727.03
2022-12-13T21:14:03.794Z,100725.56
2022-12-13T21:16:39.471Z,100719.69
2022-12-13T21:19:08.508Z,100718.66
2022-12-13T21:21:36.180Z,100715.38
2022-12-13T21:24:04.256Z,100719.81
2022-12-13T21:26:35.645Z,100714.72
2022-12-13T21:29:06.347Z,100706.44
2022-12-13T21:31:34.696Z,100705.69
2022-12-13T21:34:03.548Z,100705.13
2022-12-13T21:36:39.299Z,100708.31
2022-12-13T21:39:09.342Z,100707.59
2022-12-13T21:41:36.956Z,100710.09
2022-12-13T21:44:04.560Z,100676.47
2022-12-13T21:47:11.511Z,100709.44
2022-12-13T21:49:20.098Z,100714.44
2022-12-13T21:51:48.552Z,100706.72
2022-12-13T21:54:16.924Z,100702.50
2022-12-13T21:57:01.713Z,100687.19
2022-12-13T21:59:29.397Z,100700.16
2022-12-13T22:02:14.559Z,100697.34
2022-12-13T22:04:46.641Z,100711.81
2022-12-13T22:07:24.894Z,100718.06
2022-12-13T22:09:53.685Z,100710.22
2022-12-13T22:12:39.497Z,100696.69
2022-12-13T22:15:09.547Z,100677.03
2022-12-13T22:17:38.502Z,100683.53
2022-12-13T22:20:14.127Z,100685.56
2022-12-13T22:22:44.104Z,100660.59
2022-12-13T22:25:11.832Z,100670.78
2022-12-13T22:27:39.343Z,100674.16
2022-12-13T22:30:07.511Z,100648.28
2022-12-13T22:32:35.020Z,100667.31
2022-12-13T22:35:02.581Z,100646.94
2022-12-13T22:37:30.374Z,100646.28
2022-12-13T22:39:57.987Z,100642.84
2022-12-13T22:42:25.486Z,100647.44
2022-12-13T22:44:52.986Z,100641.38
2022-12-13T22:47:20.607Z,100649.09
2022-12-13T22:49:48.734Z,100631.50
2022-12-13T22:52:17.049Z,100622.97
2022-12-13T22:54:44.582Z,100625.25
2022-12-13T22:57:12.102Z,100616.00
2022-12-13T22:59:39.564Z,100619.66
2022-12-13T23:02:07.832Z,100626.84
2022-12-13T23:04:35.570Z,100616.56
2022-12-13T23:07:03.103Z,100621.75
2022-12-13T23:09:30.619Z,100616.66
2022-12-13T23:12:16.042Z,100625.25
2022-12-13T23:14:43.561Z,100620.03
2022-12-13T23:17:11.053Z,100608.75
2022-12-13T23:19:49.075Z,100620.75
2022-12-13T23:22:20.798Z,100623.22
2022-12-13T23:24:48.384Z,100617.25
2022-12-13T23:27:15.943Z,100609.56
2022-12-13T23:29:43.693Z,100611.16
2022-12-13T23:32:11.289Z,100604.59
2022-12-13T23:34:38.818Z,100603.38
2022-12-13T23:37:06.344Z,100602.72
2022-12-13T23:39:33.871Z,100599.25
2022-12-13T23:42:01.405Z,100601.28
2022-12-13T23:44:28.896Z,100605.47
2022-12-13T23:46:56.388Z,100592.69
2022-12-13T23:49:23.942Z,100597.63
2022-12-13T23:51:51.515Z,100592.41
2022-12-13T23:54:20.117Z,100587.91
2022-12-13T23:56:48.596Z,100594.97
2022-12-13T23:59:16.140Z,100594.59
